createdAt,value
2022-12-08T00:00:06.022Z,20.40
2022-12-08T00:02:38.687Z,21.30
2022-12-08T00:05:24.223Z,21.98
2022-12-08T00:08:09.462Z,21.35
2022-12-08T00:10:51.291Z,22.55
2022-12-08T00:13:17.874Z,21.08
2022-12-08T00:15:44.407Z,20.30
2022-12-08T00:18:12.003Z,21.08
2022-12-08T00:20:38.523Z,23.40
2022-12-08T00:23:05.091Z,22.10
2022-12-08T00:25:35.019Z,23.13
2022-12-08T00:28:01.548Z,23.25
2022-12-08T00:30:28.129Z,23.38
2022-12-08T00:32:54.673Z,20.42
2022-12-08T00:35:21.245Z,21.55
2022-12-08T00:37:47.753Z,21.50
2022-12-08T00:40:14.382Z,21.17
2022-12-08T00:42:40.902Z,21.35
2022-12-08T00:47:33.962Z,22.13
2022-12-08T00:50:00.608Z,20.63
2022-12-08T00:52:27.169Z,22.60
2022-12-08T00:54:53.693Z,22.63
2022-12-08T00:57:21.516Z,23.55
2022-12-08T00:59:48.034Z,23.83
2022-12-08T01:02:14.871Z,23.20
2022-12-08T01:04:41.776Z,24.77
2022-12-08T01:07:08.721Z,26.13
2022-12-08T01:09:35.407Z,25.15
2022-12-08T01:12:02.037Z,25.85
2022-12-08T01:14:28.540Z,28.92
2022-12-08T01:16:55.319Z,27.35
2022-12-08T01:19:21.862Z,26.27
2022-12-08T01:21:48.475Z,26.98
2022-12-08T01:24:20.511Z,26.55
2022-12-08T01:26:48.153Z,27.02
2022-12-08T01:29:15.678Z,26.55
2022-12-08T01:31:42.694Z,27.05
2022-12-08T01:34:11.267Z,24.08
2022-12-08T01:36:38.484Z,24.48
2022-12-08T01:39:08.148Z,25.25
2022-12-08T01:41:37.491Z,23.60
2022-12-08T01:44:08.153Z,24.63
2022-12-08T01:46:37.263Z,22.85
2022-12-08T01:49:09.077Z,22.50
2022-12-08T01:51:48.741Z,23.00
2022-12-08T01:54:16.239Z,22.27
2022-12-08T01:56:52.684Z,21.58
2022-12-08T01:59:19.797Z,21.30
2022-12-08T02:01:51.224Z,22.02
2022-12-08T02:04:18.075Z,21.90
2022-12-08T02:06:48.822Z,24.17
2022-12-08T02:09:15.499Z,23.17
2022-12-08T02:11:42.064Z,22.38
2022-12-08T02:14:10.855Z,22.27
2022-12-08T02:17:02.138Z,23.80
2022-12-08T02:19:54.582Z,22.52
2022-12-08T02:22:35.474Z,24.25
2022-12-08T02:25:23.793Z,22.35
2022-12-08T02:28:10.207Z,22.67
2022-12-08T02:30:58.682Z,16.75
2022-12-08T02:33:46.569Z,20.92
2022-12-08T02:36:24.265Z,24.42
2022-12-08T02:39:05.890Z,25.30
2022-12-08T02:42:25.062Z,27.42
2022-12-08T02:45:06.248Z,24.75
2022-12-08T02:47:34.407Z,24.05
2022-12-08T02:50:01.031Z,21.95
2022-12-08T02:52:27.623Z,24.65
2022-12-08T02:55:00.714Z,24.10
2022-12-08T02:57:51.436Z,25.63
2022-12-08T03:00:23.311Z,28.05
2022-12-08T03:03:01.791Z,27.67
2022-12-08T03:05:57.602Z,27.35
2022-12-08T03:08:42.162Z,24.70
2022-12-08T03:11:13.937Z,26.85
2022-12-08T03:13:43.250Z,28.27
2022-12-08T03:16:12.753Z,26.58
2022-12-08T03:18:46.798Z,29.02
2022-12-08T03:21:17.129Z,29.63
2022-12-08T03:23:46.790Z,29.70
2022-12-08T03:26:18.128Z,30.10
2022-12-08T03:28:44.990Z,30.52
2022-12-08T03:31:14.482Z,29.77
2022-12-08T03:33:45.417Z,30.38
2022-12-08T03:36:14.160Z,32.35
2022-12-08T03:38:43.620Z,29.92
2022-12-08T03:41:20.037Z,28.40
2022-12-08T03:43:50.776Z,29.23
2022-12-08T03:46:18.364Z,29.65
2022-12-08T03:48:45.036Z,28.55
2022-12-08T03:51:11.819Z,29.13
2022-12-08T03:53:38.679Z,31.08
2022-12-08T03:56:27.109Z,39.60
2022-12-08T03:58:54.639Z,31.00
2022-12-08T04:01:21.995Z,29.20
2022-12-08T04:03:48.975Z,31.08
2022-12-08T04:06:15.666Z,30.88
2022-12-08T04:08:42.326Z,28.95
2022-12-08T04:11:09.334Z,27.63
2022-12-08T04:13:37.467Z,27.58
2022-12-08T04:16:05.352Z,25.42
2022-12-08T04:18:33.090Z,27.85
2022-12-08T04:20:59.631Z,25.75
2022-12-08T04:23:26.287Z,23.60
2022-12-08T04:25:53.245Z,23.92
2022-12-08T04:28:19.871Z,25.13
2022-12-08T04:30:48.291Z,25.05
2022-12-08T04:33:15.115Z,23.73
2022-12-08T04:35:41.669Z,25.38
2022-12-08T04:38:08.182Z,24.08
2022-12-08T04:40:34.689Z,25.20
2022-12-08T04:43:01.178Z,26.58
2022-12-08T04:45:27.854Z,26.88
2022-12-08T04:47:54.458Z,23.42
2022-12-08T04:50:20.972Z,24.35
2022-12-08T04:52:47.583Z,24.90
2022-12-08T04:55:14.089Z,26.75
2022-12-08T04:57:40.604Z,27.33
2022-12-08T05:00:08.149Z,27.20
2022-12-08T05:02:34.871Z,26.13
2022-12-08T05:05:01.473Z,27.35
2022-12-08T05:07:28.018Z,23.08
2022-12-08T05:09:54.583Z,26.42
2022-12-08T05:12:21.205Z,24.88
2022-12-08T05:14:48.403Z,23.15
2022-12-08T05:17:16.039Z,24.83
2022-12-08T05:19:42.696Z,23.40
2022-12-08T05:22:09.359Z,25.17
2022-12-08T05:24:36.017Z,23.98
2022-12-08T05:27:02.634Z,24.17
2022-12-08T05:29:29.196Z,22.23
2022-12-08T05:31:55.910Z,21.70
2022-12-08T05:34:22.563Z,23.67
2022-12-08T05:36:49.184Z,23.90
2022-12-08T05:39:15.761Z,23.95
2022-12-08T05:41:42.361Z,21.67
2022-12-08T05:44:09.203Z,23.88
2022-12-08T05:46:36.046Z,23.75
2022-12-08T05:49:03.001Z,21.35
2022-12-08T05:51:29.684Z,23.02
2022-12-08T05:53:56.634Z,23.50
2022-12-08T05:56:23.701Z,25.67
2022-12-08T05:58:50.727Z,24.90
2022-12-08T06:01:29.927Z,22.70
2022-12-08T06:03:58.619Z,21.15
2022-12-08T06:06:25.275Z,23.02
2022-12-08T06:08:51.882Z,24.33
2022-12-08T06:11:25.197Z,24.80
2022-12-08T06:13:52.011Z,24.52
2022-12-08T06:16:18.820Z,23.70
2022-12-08T06:18:45.841Z,23.02
2022-12-08T06:21:13.960Z,22.30
2022-12-08T06:23:40.712Z,24.83
2022-12-08T06:26:10.217Z,22.13
2022-12-08T06:28:36.809Z,25.15
2022-12-08T06:31:20.832Z,24.25
2022-12-08T06:33:47.982Z,25.08
2022-12-08T06:36:16.320Z,24.92
2022-12-08T06:38:44.102Z,24.48
2022-12-08T06:41:12.018Z,23.23
2022-12-08T06:43:39.149Z,23.80
2022-12-08T06:46:09.047Z,23.10
2022-12-08T06:48:35.962Z,25.45
2022-12-08T06:51:14.011Z,24.55
2022-12-08T06:53:41.357Z,23.33
2022-12-08T06:56:08.600Z,24.25
2022-12-08T06:58:36.035Z,21.23
2022-12-08T07:01:11.497Z,20.15
2022-12-08T07:03:39.026Z,19.90
2022-12-08T07:06:06.766Z,20.63
2022-12-08T07:08:34.498Z,19.70
2022-12-08T07:11:07.616Z,18.70
2022-12-08T07:13:34.121Z,20.77
2022-12-08T07:16:00.628Z,19.73
2022-12-08T07:20:53.549Z,21.50
2022-12-08T07:23:20.037Z,22.33
2022-12-08T07:25:46.550Z,22.90
2022-12-08T07:28:13.029Z,22.48
2022-12-08T07:30:39.948Z,21.58
2022-12-08T07:33:06.692Z,22.83
2022-12-08T07:35:35.058Z,21.92
2022-12-08T07:38:02.766Z,24.05
2022-12-08T07:40:29.577Z,21.02
2022-12-08T07:42:56.155Z,21.15
2022-12-08T07:45:25.760Z,22.65
2022-12-08T07:47:56.369Z,25.13
2022-12-08T07:50:22.941Z,25.17
2022-12-08T07:52:49.459Z,26.75
2022-12-08T07:55:16.114Z,25.55
2022-12-08T07:57:42.653Z,26.10
2022-12-08T08:00:10.839Z,25.67
2022-12-08T08:02:41.887Z,26.23
2022-12-08T08:05:09.213Z,25.98
2022-12-08T08:07:37.109Z,23.60
2022-12-08T08:10:04.583Z,23.63
2022-12-08T08:12:32.635Z,24.00
2022-12-08T08:15:03.896Z,25.65
2022-12-08T08:17:30.593Z,22.48
2022-12-08T08:19:57.430Z,23.98
2022-12-08T08:22:25.199Z,26.85
2022-12-08T08:24:51.917Z,28.33
2022-12-08T08:27:18.478Z,26.80
2022-12-08T08:29:45.083Z,27.33
2022-12-08T08:32:11.726Z,27.00
2022-12-08T08:34:38.483Z,27.65
2022-12-08T08:37:05.074Z,28.27
2022-12-08T08:39:31.922Z,30.10
2022-12-08T08:41:58.767Z,29.95
2022-12-08T08:44:25.366Z,29.33
2022-12-08T08:46:52.157Z,27.67
2022-12-08T08:49:18.859Z,27.50
2022-12-08T08:51:45.765Z,31.38
2022-12-08T08:54:12.274Z,31.17
2022-12-08T08:56:38.780Z,28.02
2022-12-08T08:59:05.397Z,25.27
2022-12-08T09:01:31.929Z,25.80
2022-12-08T09:03:58.569Z,23.58
2022-12-08T09:06:25.546Z,25.15
2022-12-08T09:08:52.170Z,23.67
2022-12-08T09:11:18.881Z,23.95
2022-12-08T09:13:49.924Z,22.50
2022-12-08T09:16:17.171Z,23.83
2022-12-08T09:18:43.756Z,22.48
2022-12-08T09:21:15.551Z,22.83
2022-12-08T09:23:43.193Z,22.40
2022-12-08T09:26:10.462Z,22.35
2022-12-08T09:28:37.800Z,24.58
2022-12-08T09:31:04.694Z,23.60
2022-12-08T09:33:31.670Z,24.60
2022-12-08T09:36:02.248Z,22.13
2022-12-08T09:38:28.754Z,23.02
2022-12-08T09:40:55.388Z,22.20
2022-12-08T09:43:47.144Z,22.27
2022-12-08T09:46:17.456Z,24.15
2022-12-08T09:49:03.100Z,22.77
2022-12-08T09:51:35.944Z,23.02
2022-12-08T09:54:15.305Z,23.17
2022-12-08T09:56:41.878Z,21.75
2022-12-08T09:59:30.945Z,21.45
2022-12-08T10:01:57.691Z,23.27
2022-12-08T10:04:26.190Z,21.05
2022-12-08T10:07:37.703Z,22.70
2022-12-08T10:10:07.498Z,20.92
2022-12-08T10:12:46.337Z,21.67
2022-12-08T10:15:31.841Z,21.42
2022-12-08T10:18:02.356Z,20.67
2022-12-08T10:20:42.188Z,21.38
2022-12-08T10:23:32.961Z,20.27
2022-12-08T10:26:03.790Z,22.15
2022-12-08T10:28:32.937Z,22.00
2022-12-08T10:30:59.670Z,21.65
2022-12-08T10:33:26.623Z,20.83
2022-12-08T10:35:58.573Z,21.23
2022-12-08T10:38:37.704Z,19.02
2022-12-08T10:41:09.983Z,19.83
2022-12-08T10:43:42.190Z,19.33
2022-12-08T10:46:15.862Z,19.67
2022-12-08T10:48:49.935Z,18.67
2022-12-08T10:51:30.466Z,19.02
2022-12-08T10:53:57.438Z,19.05
2022-12-08T10:56:29.764Z,20.23
2022-12-08T10:59:16.481Z,18.88
2022-12-08T11:01:48.166Z,18.30
2022-12-08T11:04:24.236Z,17.45
2022-12-08T11:06:51.746Z,16.98
2022-12-08T11:09:18.461Z,16.73
2022-12-08T11:12:15.517Z,14.23
2022-12-08T11:14:44.949Z,17.23
2022-12-08T11:33:34.072Z,13.68
2022-12-08T11:36:09.461Z,14.30
2022-12-08T11:38:41.594Z,16.23
2022-12-08T11:41:19.159Z,14.10
2022-12-08T11:43:50.724Z,16.67
2022-12-08T11:46:24.808Z,18.33
2022-12-08T11:49:18.805Z,19.70
2022-12-08T11:51:58.128Z,18.52
2022-12-08T11:54:30.744Z,18.30
2022-12-08T11:57:02.135Z,16.98
2022-12-08T11:59:30.299Z,15.65
2022-12-08T12:02:01.696Z,17.20
2022-12-08T12:04:52.633Z,16.27
2022-12-08T12:07:56.626Z,15.75
2022-12-08T12:11:04.910Z,16.85
2022-12-08T12:14:12.911Z,15.20
2022-12-08T12:16:49.437Z,14.70
2022-12-08T12:19:19.072Z,14.75
2022-12-08T12:21:51.443Z,14.75
2022-12-08T12:24:31.540Z,13.98
2022-12-08T12:27:02.517Z,14.27
2022-12-08T12:29:35.291Z,14.25
2022-12-08T12:32:05.822Z,15.23
2022-12-08T12:34:55.369Z,13.52
2022-12-08T12:37:26.181Z,14.57
2022-12-08T12:39:52.637Z,14.93
2022-12-08T12:45:16.766Z,12.77
2022-12-08T12:47:57.246Z,14.50
2022-12-08T12:50:33.571Z,16.33
2022-12-08T12:53:24.450Z,13.45
2022-12-08T12:55:56.961Z,12.48
2022-12-08T12:58:32.221Z,12.05
2022-12-08T13:01:14.097Z,12.15
2022-12-08T13:03:47.325Z,12.02
2022-12-08T13:06:15.886Z,11.90
2022-12-08T13:08:52.472Z,11.93
2022-12-08T13:11:19.410Z,10.60
2022-12-08T13:14:03.441Z,9.50
2022-12-08T13:16:38.586Z,10.07
2022-12-08T13:19:14.514Z,9.02
2022-12-08T13:21:41.522Z,10.07
2022-12-08T13:24:12.787Z,10.05
2022-12-08T13:26:49.819Z,9.63
2022-12-08T13:29:21.156Z,11.05
2022-12-08T13:31:54.674Z,8.57
2022-12-08T13:34:42.048Z,8.93
2022-12-08T13:37:11.490Z,9.18
2022-12-08T13:39:40.748Z,8.85
2022-12-08T13:42:13.228Z,8.80
2022-12-08T13:48:21.640Z,14.75
2022-12-08T13:59:22.448Z,20.17
2022-12-08T14:01:50.486Z,20.60
2022-12-08T14:07:09.519Z,21.52
2022-12-08T14:09:37.491Z,21.95
2022-12-08T14:12:08.405Z,22.95
2022-12-08T14:15:02.029Z,22.92
2022-12-08T14:17:25.975Z,23.05
2022-12-08T14:20:20.249Z,23.83
2022-12-08T14:22:50.150Z,21.17
2022-12-08T14:25:18.251Z,23.40
2022-12-08T14:27:46.024Z,21.55
2022-12-08T14:30:13.615Z,23.88
2022-12-08T14:32:44.387Z,25.90
2022-12-08T14:35:10.857Z,24.95
2022-12-08T14:37:46.678Z,25.48
2022-12-08T14:40:22.980Z,26.17
2022-12-08T14:45:19.335Z,24.48
2022-12-08T14:47:46.822Z,24.80
2022-12-08T14:50:35.399Z,27.00
2022-12-08T14:53:02.770Z,25.15
2022-12-08T14:55:36.497Z,27.08
2022-12-08T14:58:03.762Z,28.77
2022-12-08T15:00:30.535Z,27.63
2022-12-08T15:02:57.361Z,27.38
2022-12-08T15:05:30.658Z,26.30
2022-12-08T15:08:02.926Z,26.80
2022-12-08T15:10:33.195Z,27.88
2022-12-08T15:13:05.105Z,27.65
2022-12-08T15:15:44.571Z,29.05
2022-12-08T15:18:28.636Z,28.40
2022-12-08T15:21:02.651Z,30.20
2022-12-08T15:23:34.036Z,30.70
2022-12-08T15:26:00.618Z,30.33
2022-12-08T15:28:30.308Z,29.83
2022-12-08T15:30:58.170Z,30.05
2022-12-08T15:33:24.791Z,31.55
2022-12-08T15:35:51.877Z,32.63
2022-12-08T15:38:28.759Z,31.83
2022-12-08T15:40:57.389Z,34.55
2022-12-08T15:43:24.211Z,33.88
2022-12-08T15:45:59.001Z,31.85
2022-12-08T15:48:28.530Z,32.97
2022-12-08T15:50:56.322Z,31.85
2022-12-08T15:53:22.820Z,34.70
2022-12-08T15:56:19.060Z,34.30
2022-12-08T15:58:55.144Z,31.80
2022-12-08T16:01:22.656Z,33.70
2022-12-08T16:09:25.999Z,35.95
2022-12-08T16:12:11.389Z,37.38
2022-12-08T16:19:52.366Z,40.95
2022-12-08T16:25:18.840Z,37.50
2022-12-08T16:30:34.204Z,38.90
2022-12-08T16:33:01.105Z,38.25
2022-12-08T16:35:27.600Z,38.38
2022-12-08T16:37:54.203Z,37.08
2022-12-08T16:40:21.079Z,34.70
2022-12-08T16:42:49.713Z,38.55
2022-12-08T16:45:22.289Z,36.28
2022-12-08T16:48:00.253Z,46.00
2022-12-08T16:50:30.459Z,44.92
2022-12-08T16:53:00.547Z,41.22
2022-12-08T16:55:27.799Z,41.22
2022-12-08T16:57:54.446Z,40.55
2022-12-08T17:00:24.210Z,38.53
2022-12-08T17:02:51.290Z,33.47
2022-12-08T17:05:19.785Z,36.63
2022-12-08T17:07:47.824Z,34.22
2022-12-08T17:10:17.861Z,37.60
2022-12-08T17:12:44.509Z,36.20
2022-12-08T17:15:14.362Z,36.42
2022-12-08T17:17:41.299Z,39.42
2022-12-08T17:20:28.614Z,37.92
2022-12-08T17:22:58.973Z,34.38
2022-12-08T17:25:26.712Z,37.00
2022-12-08T17:27:53.233Z,34.97
2022-12-08T17:30:19.838Z,40.88
2022-12-08T17:32:46.459Z,40.97
2022-12-08T17:35:14.238Z,37.00
2022-12-08T17:37:40.747Z,38.75
2022-12-08T17:40:08.536Z,43.55
2022-12-08T17:42:35.155Z,39.70
2022-12-08T17:47:27.919Z,39.20
2022-12-08T17:52:22.487Z,39.55
2022-12-08T17:54:48.932Z,37.30
2022-12-08T17:57:15.441Z,39.63
2022-12-08T18:02:11.358Z,36.50
2022-12-08T18:04:37.959Z,34.20
2022-12-08T18:07:04.442Z,36.85
2022-12-08T18:09:31.414Z,34.75
2022-12-08T18:11:58.095Z,33.40
2022-12-08T18:14:24.659Z,35.90
2022-12-08T18:16:51.391Z,34.03
2022-12-08T18:19:17.998Z,33.97
2022-12-08T18:21:44.512Z,33.28
2022-12-08T18:24:21.982Z,34.50
2022-12-08T18:26:49.411Z,33.42
2022-12-08T18:29:15.933Z,35.45
2022-12-08T18:31:42.415Z,34.88
2022-12-08T18:34:08.871Z,35.67
2022-12-08T18:36:35.377Z,35.05
2022-12-08T18:41:35.343Z,32.58
2022-12-08T18:44:02.377Z,36.17
2022-12-08T18:46:28.889Z,33.83
2022-12-08T18:48:55.411Z,34.78
2022-12-08T18:53:51.452Z,34.88
2022-12-08T18:56:30.147Z,33.45
2022-12-08T18:59:03.345Z,33.35
2022-12-08T19:01:32.382Z,34.28
2022-12-08T19:06:46.684Z,35.10
2022-12-08T19:11:40.411Z,36.10
2022-12-08T19:14:07.446Z,33.38
2022-12-08T19:16:34.542Z,36.97
2022-12-08T19:19:02.485Z,37.00
2022-12-08T19:21:28.952Z,35.70
2022-12-08T19:23:58.269Z,34.38
2022-12-08T19:26:26.286Z,37.25
2022-12-08T19:28:52.764Z,36.08
2022-12-08T19:31:19.618Z,36.33
2022-12-08T19:33:46.176Z,37.08
2022-12-08T19:36:16.415Z,35.63
2022-12-08T19:39:01.831Z,33.65
2022-12-08T19:41:47.047Z,32.75
2022-12-08T19:44:28.725Z,33.58
2022-12-08T19:46:55.286Z,32.92
2022-12-08T19:49:21.825Z,32.28
2022-12-08T19:51:48.255Z,34.15
2022-12-08T19:56:41.122Z,35.15
2022-12-08T19:59:07.902Z,35.22
2022-12-08T20:01:34.545Z,36.35
2022-12-08T20:04:01.013Z,35.60
2022-12-08T20:06:27.564Z,36.42
2022-12-08T20:08:54.239Z,36.95
2022-12-08T20:11:21.152Z,35.90
2022-12-08T20:13:47.866Z,36.05
2022-12-08T20:16:16.407Z,36.17
2022-12-08T20:18:44.094Z,36.63
2022-12-08T20:21:12.053Z,35.25
2022-12-08T20:23:38.575Z,36.83
2022-12-08T20:26:09.841Z,32.83
2022-12-08T20:28:36.433Z,34.28
2022-12-08T20:31:04.203Z,33.15
2022-12-08T20:33:31.367Z,35.50
2022-12-08T20:36:03.261Z,37.65
2022-12-08T20:38:30.127Z,33.45
2022-12-08T20:40:58.102Z,36.33
2022-12-08T20:43:25.505Z,36.97
2022-12-08T20:45:52.030Z,35.03
2022-12-08T20:48:18.820Z,36.65
2022-12-08T20:50:45.537Z,34.17
2022-12-08T20:53:12.121Z,36.58
2022-12-08T20:55:40.900Z,37.00
2022-12-08T20:58:07.374Z,38.58
2022-12-08T21:03:01.037Z,38.83
2022-12-08T21:05:28.225Z,40.05
2022-12-08T21:07:54.990Z,42.38
2022-12-08T21:10:21.565Z,48.15
2022-12-08T21:12:48.207Z,47.65
2022-12-08T21:15:14.888Z,48.80
2022-12-08T21:17:41.480Z,55.85
2022-12-08T21:20:08.601Z,47.92
2022-12-08T21:22:35.309Z,47.75
2022-12-08T21:25:02.652Z,46.33
2022-12-08T21:27:29.216Z,44.40
2022-12-08T21:29:55.881Z,42.90
2022-12-08T21:32:28.621Z,45.03
2022-12-08T21:34:56.703Z,40.78
2022-12-08T21:39:49.973Z,42.47
2022-12-08T21:42:35.228Z,42.83
2022-12-08T21:45:01.952Z,44.33
2022-12-08T21:47:28.549Z,41.58
2022-12-08T21:49:55.111Z,39.65
2022-12-08T21:52:21.724Z,41.75
2022-12-08T21:54:48.271Z,41.75
2022-12-08T21:57:14.737Z,41.55
2022-12-08T21:59:41.229Z,38.35
2022-12-08T22:02:13.755Z,40.45
2022-12-08T22:04:42.262Z,35.83
2022-12-08T22:07:09.417Z,39.90
2022-12-08T22:09:36.064Z,39.75
2022-12-08T22:12:02.832Z,39.42
2022-12-08T22:14:29.424Z,38.67
2022-12-08T22:16:56.134Z,38.15
2022-12-08T22:19:24.429Z,38.85
2022-12-08T22:21:51.440Z,38.45
2022-12-08T22:24:18.309Z,41.35
2022-12-08T22:26:44.985Z,37.45
2022-12-08T22:29:11.860Z,39.42
2022-12-08T22:31:38.687Z,42.47
2022-12-08T22:34:05.408Z,40.00
2022-12-08T22:36:32.348Z,39.55
2022-12-08T22:38:59.065Z,41.65
2022-12-08T22:41:25.601Z,37.28
2022-12-08T22:43:52.328Z,39.83
2022-12-08T22:46:22.294Z,42.10
2022-12-08T22:48:49.768Z,40.60
2022-12-08T22:51:16.989Z,40.13
2022-12-08T22:53:43.930Z,41.28
2022-12-08T22:56:12.048Z,40.33
2022-12-08T22:58:40.052Z,43.25
2022-12-08T23:18:31.530Z,41.30
2022-12-08T23:21:06.876Z,39.63
2022-12-08T23:23:33.583Z,40.45
2022-12-08T23:26:00.516Z,41.50
2022-12-08T23:28:27.665Z,41.45
2022-12-08T23:30:54.168Z,38.25
2022-12-08T23:33:20.974Z,41.78
2022-12-08T23:35:58.020Z,40.75
2022-12-08T23:38:25.407Z,41.25
2022-12-08T23:40:52.730Z,41.17
2022-12-08T23:43:20.077Z,40.08
2022-12-08T23:45:47.666Z,38.95
2022-12-08T23:48:14.269Z,38.65
2022-12-08T23:50:40.977Z,37.58
2022-12-08T23:53:07.528Z,36.10
2022-12-08T23:55:34.262Z,36.13
2022-12-08T23:58:00.963Z,35.60
